createdAt,value
2023-03-20T00:02:28.793Z,16.8
2023-03-20T00:07:40.172Z,12.8
2023-03-20T00:13:02.638Z,11.0
2023-03-20T00:18:17.064Z,14.6
2023-03-20T00:22:55.355Z,12.4
2023-03-20T00:28:27.409Z,13.1
2023-03-20T00:33:09.773Z,13.7
2023-03-20T00:38:16.119Z,10.2
2023-03-20T00:43:43.619Z,14.6
2023-03-20T00:48:29.968Z,14.2
2023-03-20T00:53:36.379Z,12.1
2023-03-20T00:59:02.796Z,15.1
2023-03-20T01:03:49.161Z,15.0
2023-03-20T01:08:57.250Z,13.9
2023-03-20T01:14:27.600Z,11.7
2023-03-20T01:19:29.950Z,16.9
2023-03-20T01:24:16.319Z,13.2
2023-03-20T01:29:22.694Z,14.7
2023-03-20T01:34:29.056Z,16.5
2023-03-20T01:39:35.463Z,12.0
2023-03-20T01:44:41.850Z,15.5
2023-03-20T01:49:48.270Z,11.3
2023-03-20T01:55:14.725Z,12.4
2023-03-20T01:59:51.019Z,10.6
2023-03-20T02:05:07.503Z,10.4
2023-03-20T02:10:03.977Z,13.4
2023-03-20T02:15:20.404Z,10.2
2023-03-20T02:20:27.328Z,14.4
2023-03-20T02:25:34.183Z,12.3
2023-03-20T02:30:40.183Z,7.5
2023-03-20T02:35:46.537Z,9.9
2023-03-20T02:44:01.222Z,8.0
2023-03-20T02:45:59.287Z,7.5
2023-03-20T02:51:05.613Z,7.9
2023-03-20T02:56:32.034Z,7.2
2023-03-20T03:01:18.497Z,7.8
2023-03-20T03:06:24.915Z,8.5
2023-03-20T03:11:31.402Z,11.5
2023-03-20T03:17:01.855Z,5.7
2023-03-20T03:21:44.156Z,9.4
2023-03-20T03:26:54.537Z,6.2
2023-03-20T03:31:56.906Z,5.4
2023-03-20T03:37:03.489Z,5.6
2023-03-20T03:42:09.840Z,6.6
2023-03-20T03:47:36.255Z,5.3
2023-03-20T03:52:42.683Z,5.4
2023-03-20T03:57:29.029Z,5.0
2023-03-20T04:02:59.493Z,3.9
2023-03-20T04:07:41.812Z,5.1
2023-03-20T04:12:48.249Z,4.9
2023-03-20T04:18:18.259Z,4.8
2023-03-20T04:23:04.599Z,7.9
2023-03-20T04:28:10.973Z,6.9
2023-03-20T04:33:17.342Z,6.6
2023-03-20T04:39:36.218Z,9.0
2023-03-20T04:43:30.495Z,7.0
2023-03-20T04:48:36.850Z,8.2
2023-03-20T04:54:07.290Z,8.4
2023-03-20T04:58:49.630Z,7.0
2023-03-20T05:03:56.036Z,7.6
2023-03-20T05:09:01.409Z,7.1
2023-03-20T05:14:08.813Z,7.0
2023-03-20T05:19:05.110Z,7.4
2023-03-20T05:24:21.530Z,4.3
2023-03-20T05:29:27.898Z,6.2
2023-03-20T05:34:34.254Z,5.3
2023-03-20T05:39:40.630Z,8.2
2023-03-20T05:44:47.023Z,5.4
2023-03-20T05:50:13.432Z,5.0
2023-03-20T05:55:19.824Z,4.1
2023-03-20T06:00:30.269Z,6.2
2023-03-20T06:05:12.543Z,6.5
2023-03-20T06:10:08.897Z,5.3
2023-03-20T06:15:25.353Z,6.6
2023-03-20T06:20:21.914Z,6.1
2023-03-20T06:25:39.743Z,4.3
2023-03-20T06:30:47.730Z,5.8
2023-03-20T06:35:54.132Z,6.4
2023-03-20T06:41:44.558Z,5.4
2023-03-20T06:46:06.832Z,4.9
2023-03-20T06:51:14.785Z,4.5
2023-03-20T06:56:21.726Z,4.9
2023-03-20T07:01:28.255Z,6.1
2023-03-20T07:06:24.686Z,5.2
2023-03-20T07:11:39.969Z,5.8
2023-03-20T07:16:47.421Z,2.5
2023-03-20T07:21:57.318Z,5.3
2023-03-20T07:26:53.648Z,7.0
2023-03-20T07:32:10.057Z,4.6
2023-03-20T07:37:36.756Z,6.0
2023-03-20T07:42:22.934Z,5.5
2023-03-20T07:47:29.374Z,5.0
2023-03-20T07:52:35.825Z,3.6
2023-03-20T08:02:55.440Z,4.8
2023-03-20T08:07:57.622Z,4.0
2023-03-20T08:13:05.129Z,3.0
2023-03-20T08:18:11.424Z,4.0
2023-03-20T08:23:07.906Z,2.9
2023-03-20T08:28:36.486Z,4.8
2023-03-20T08:33:30.664Z,4.5
2023-03-20T08:39:21.128Z,4.8
2023-03-20T08:43:43.394Z,4.0
2023-03-20T08:48:49.785Z,1.6
2023-03-20T08:53:56.147Z,4.6
2023-03-20T08:59:02.524Z,3.8
2023-03-20T09:04:08.932Z,3.3
2023-03-20T09:09:15.357Z,3.0
2023-03-20T09:14:21.797Z,3.5
2023-03-20T09:19:30.011Z,2.2
2023-03-20T09:24:34.595Z,4.8
2023-03-20T09:29:40.962Z,3.3
2023-03-20T09:34:47.387Z,4.1
2023-03-20T09:39:53.754Z,3.1
2023-03-20T09:45:00.159Z,2.3
2023-03-20T09:50:06.589Z,2.2
2023-03-20T09:55:13.108Z,2.1
2023-03-20T10:00:41.068Z,1.8
2023-03-20T10:05:27.994Z,2.7
2023-03-20T10:10:34.813Z,3.2
2023-03-20T10:15:40.737Z,2.5
2023-03-20T10:20:50.302Z,2.6
2023-03-20T10:25:57.204Z,3.0
2023-03-20T10:31:03.732Z,2.0
2023-03-20T10:36:10.218Z,2.1
2023-03-20T10:41:16.425Z,1.5
2023-03-20T10:46:26.923Z,1.6
2023-03-20T10:51:29.224Z,1.7
2023-03-20T10:56:35.594Z,2.2
2023-03-20T11:01:41.934Z,1.8
2023-03-20T11:06:48.487Z,2.4
2023-03-20T11:11:54.858Z,1.7
2023-03-20T11:17:01.460Z,1.1
2023-03-20T11:22:08.345Z,1.4
2023-03-20T11:27:18.740Z,2.1
2023-03-20T11:32:25.085Z,1.7
2023-03-20T11:42:38.434Z,1.3
2023-03-20T11:47:41.822Z,1.8
2023-03-20T11:52:48.232Z,1.8
2023-03-20T11:57:54.652Z,1.6
2023-03-20T12:03:01.049Z,2.1
2023-03-20T12:08:07.450Z,1.7
2023-03-20T12:13:13.871Z,2.6
2023-03-20T12:18:10.201Z,1.3
2023-03-20T12:23:30.610Z,1.7
2023-03-20T12:28:33.040Z,1.6
2023-03-20T12:33:39.392Z,1.5
2023-03-20T12:38:45.778Z,3.1
2023-03-20T12:43:52.187Z,0.9
2023-03-20T12:48:58.528Z,1.9
2023-03-20T12:54:08.910Z,2.7
2023-03-20T12:59:11.297Z,2.2
2023-03-20T13:04:17.826Z,3.0
2023-03-20T13:09:24.233Z,2.2
2023-03-20T13:14:30.659Z,2.5
2023-03-20T13:19:37.005Z,2.1
2023-03-20T13:25:11.459Z,3.1
2023-03-20T13:30:13.856Z,2.4
2023-03-20T13:34:56.174Z,3.1
2023-03-20T13:40:02.705Z,2.1
2023-03-20T13:45:13.088Z,2.9
2023-03-20T13:50:39.530Z,2.4
2023-03-20T13:55:21.842Z,2.3
2023-03-20T14:00:31.940Z,2.5
2023-03-20T14:05:28.121Z,1.0
2023-03-20T14:10:45.101Z,3.0
2023-03-20T14:16:12.514Z,2.2
2023-03-20T14:21:19.033Z,2.4
2023-03-20T14:26:05.418Z,3.3
2023-03-20T14:31:15.336Z,1.7
2023-03-20T14:36:21.693Z,2.5
2023-03-20T14:41:28.099Z,2.4
2023-03-20T14:46:34.611Z,1.1
2023-03-20T14:51:42.550Z,1.2
2023-03-20T14:56:38.922Z,2.0
2023-03-20T15:01:55.302Z,2.2
2023-03-20T15:07:01.668Z,1.6
2023-03-20T15:12:08.211Z,1.5
2023-03-20T15:17:04.534Z,1.9
2023-03-20T15:22:41.074Z,2.4
2023-03-20T15:27:27.438Z,1.9
2023-03-20T15:32:33.849Z,1.6
2023-03-20T15:37:40.179Z,2.1
2023-03-20T15:42:46.565Z,1.5
2023-03-20T15:47:52.923Z,1.7
2023-03-20T15:52:59.312Z,1.8
2023-03-20T15:58:25.752Z,3.2
2023-03-20T16:03:12.101Z,2.3
2023-03-20T16:08:22.508Z,2.0
2023-03-20T16:14:25.011Z,2.2
2023-03-20T16:18:58.759Z,2.9
2023-03-20T16:23:38.179Z,2.6
2023-03-20T16:28:44.666Z,1.9
2023-03-20T16:33:51.078Z,2.8
2023-03-20T16:39:01.440Z,2.2
2023-03-20T16:44:07.822Z,2.4
2023-03-20T16:49:10.266Z,2.1
2023-03-20T16:54:20.618Z,3.4
2023-03-20T16:59:43.586Z,3.3
2023-03-20T17:04:30.075Z,3.5
2023-03-20T17:09:36.306Z,3.3
2023-03-20T17:14:42.687Z,3.6
2023-03-20T17:20:14.936Z,2.1
2023-03-20T17:24:57.020Z,1.1
2023-03-20T17:30:03.537Z,4.1
2023-03-20T17:34:59.904Z,3.2
2023-03-20T17:40:15.333Z,3.9
2023-03-20T17:45:22.708Z,3.3
2023-03-20T17:50:29.077Z,3.4
2023-03-20T17:55:35.601Z,5.0
2023-03-20T18:00:41.974Z,4.7
2023-03-20T18:05:48.364Z,2.2
2023-03-20T18:10:58.800Z,2.9
2023-03-20T18:16:05.189Z,5.3
2023-03-20T18:26:17.727Z,4.7
2023-03-20T18:31:24.207Z,2.2
2023-03-20T18:36:30.464Z,2.9
2023-03-20T18:41:40.883Z,3.7
2023-03-20T18:46:43.406Z,4.7
2023-03-20T18:51:49.690Z,5.4
2023-03-20T18:56:56.094Z,4.0
2023-03-20T19:02:02.713Z,3.1
2023-03-20T19:07:09.051Z,3.4
2023-03-20T19:13:16.222Z,4.4
2023-03-20T19:17:22.452Z,4.0
2023-03-20T19:22:29.936Z,5.4
2023-03-20T19:27:35.199Z,4.5
2023-03-20T19:33:05.828Z,4.6
2023-03-20T19:37:48.197Z,5.2
2023-03-20T19:43:02.388Z,4.4
2023-03-20T19:48:04.998Z,6.4
2023-03-20T19:53:27.429Z,4.8
2023-03-20T19:58:41.363Z,3.9
2023-03-20T20:03:24.836Z,3.8
2023-03-20T20:08:55.389Z,6.2
2023-03-20T20:13:51.190Z,5.3
2023-03-20T20:18:44.212Z,4.6
2023-03-20T20:23:50.612Z,4.6
2023-03-20T20:28:57.017Z,7.6
2023-03-20T20:35:43.592Z,4.9
2023-03-20T20:39:09.951Z,4.9
2023-03-20T20:44:17.477Z,4.3
2023-03-20T20:50:34.856Z,3.0
2023-03-20T20:54:29.092Z,4.7
2023-03-20T20:59:35.617Z,3.5
2023-03-20T21:04:41.876Z,4.6
2023-03-20T21:09:48.260Z,5.1
2023-03-20T21:14:54.684Z,5.4
2023-03-20T21:20:46.172Z,4.2
2023-03-20T21:26:16.774Z,5.8
2023-03-20T21:31:24.134Z,6.2
2023-03-20T21:36:11.619Z,4.1
2023-03-20T21:41:18.985Z,6.0
2023-03-20T21:52:29.331Z,5.9
2023-03-20T21:57:11.042Z,7.0
2023-03-20T22:02:06.315Z,5.5
2023-03-20T22:12:46.444Z,5.1
2023-03-20T22:33:03.508Z,5.6
2023-03-20T22:43:01.570Z,5.4
2023-03-20T22:47:47.604Z,5.7
2023-03-20T22:52:53.966Z,7.1
2023-03-20T22:58:07.881Z,6.3
2023-03-20T23:03:17.537Z,5.7
2023-03-20T23:08:18.665Z,7.1
2023-03-20T23:13:21.046Z,6.9
2023-03-20T23:18:26.480Z,3.2
2023-03-20T23:23:57.858Z,6.9
2023-03-20T23:29:14.299Z,6.9
2023-03-20T23:34:25.727Z,6.4
2023-03-20T23:39:28.101Z,6.6
2023-03-20T23:44:44.071Z,6.6
2023-03-20T23:49:40.857Z,7.6
2023-03-20T23:54:47.226Z,4.4
2023-03-20T23:59:43.599Z,6.9
